createdAt,value
2023-12-10T00:01:56.330Z,16.62
2023-12-10T00:06:58.638Z,16.62
2023-12-10T00:12:00.798Z,16.63
2023-12-10T00:17:02.906Z,16.58
2023-12-10T00:22:05.237Z,16.62
2023-12-10T00:27:07.353Z,16.62
2023-12-10T00:32:09.483Z,16.61
2023-12-10T00:37:11.683Z,16.63
2023-12-10T00:42:13.829Z,16.64
2023-12-10T00:47:15.988Z,16.62
2023-12-10T00:52:18.051Z,16.63
2023-12-10T00:57:20.191Z,16.62
2023-12-10T01:02:23.185Z,16.62
2023-12-10T01:07:25.257Z,16.58
2023-12-10T01:12:27.886Z,16.63
2023-12-10T01:17:30.521Z,16.62
2023-12-10T01:22:32.620Z,16.63
2023-12-10T01:27:34.789Z,16.62
2023-12-10T01:32:37.021Z,16.63
2023-12-10T01:37:39.362Z,16.62
2023-12-10T01:42:48.518Z,16.61
2023-12-10T01:47:53.485Z,16.63
2023-12-10T01:52:55.817Z,16.62
2023-12-10T01:57:58.033Z,16.62
2023-12-10T02:03:04.627Z,16.62
2023-12-10T02:08:06.775Z,16.62
2023-12-10T02:13:08.920Z,16.61
2023-12-10T02:18:11.316Z,16.62
2023-12-10T02:23:27.037Z,16.60
2023-12-10T02:28:29.144Z,16.61
2023-12-10T02:33:31.464Z,16.62
2023-12-10T02:38:33.813Z,16.61
2023-12-10T02:43:35.942Z,16.60
2023-12-10T02:48:38.268Z,16.61
2023-12-10T02:53:40.507Z,16.60
2023-12-10T02:58:42.585Z,16.60
2023-12-10T03:03:44.878Z,16.60
2023-12-10T03:08:47.172Z,16.60
2023-12-10T03:13:49.357Z,16.59
2023-12-10T03:18:51.684Z,16.59
2023-12-10T03:23:53.939Z,16.61
2023-12-10T03:28:56.037Z,16.61
2023-12-10T03:33:58.321Z,16.60
2023-12-10T03:39:00.535Z,16.60
2023-12-10T03:44:02.675Z,16.62
2023-12-10T03:49:05.024Z,16.60
2023-12-10T03:54:07.303Z,16.59
2023-12-10T03:59:09.575Z,16.60
2023-12-10T04:04:13.199Z,16.60
2023-12-10T04:09:15.368Z,16.60
2023-12-10T04:14:17.629Z,16.59
2023-12-10T04:19:19.881Z,16.60
2023-12-10T04:29:24.229Z,16.59
2023-12-10T04:34:26.413Z,16.57
2023-12-10T04:39:29.330Z,16.60
2023-12-10T04:44:31.452Z,16.60
2023-12-10T04:49:33.762Z,16.60
2023-12-10T04:54:36.020Z,16.60
2023-12-10T04:59:38.115Z,16.60
2023-12-10T05:04:40.272Z,16.60
2023-12-10T05:09:43.292Z,16.60
2023-12-10T05:14:45.480Z,16.59
2023-12-10T05:19:47.648Z,16.58
2023-12-10T05:24:49.933Z,16.58
2023-12-10T05:29:52.118Z,16.58
2023-12-10T05:34:55.005Z,16.60
2023-12-10T05:39:57.965Z,16.60
2023-12-10T05:45:00.255Z,16.59
2023-12-10T05:50:02.543Z,16.59
2023-12-10T05:55:05.415Z,16.60
2023-12-10T06:00:08.833Z,16.60
2023-12-10T06:05:12.610Z,16.58
2023-12-10T06:10:15.105Z,16.57
2023-12-10T06:15:17.295Z,16.57
2023-12-10T06:20:19.452Z,16.58
2023-12-10T06:25:21.626Z,16.59
2023-12-10T06:30:24.558Z,16.58
2023-12-10T06:35:26.775Z,16.56
2023-12-10T06:40:28.900Z,16.58
2023-12-10T06:45:31.197Z,16.59
2023-12-10T06:50:33.542Z,16.57
2023-12-10T06:55:35.724Z,16.59
2023-12-10T07:00:38.099Z,16.58
2023-12-10T07:05:40.291Z,16.59
2023-12-10T07:10:42.504Z,16.60
2023-12-10T07:15:47.355Z,16.60
2023-12-10T07:20:49.611Z,16.59
2023-12-10T07:25:51.738Z,16.60
2023-12-10T07:30:53.937Z,16.58
2023-12-10T07:35:58.446Z,16.56
2023-12-10T07:41:00.649Z,16.58
2023-12-10T07:46:03.104Z,16.57
2023-12-10T07:51:05.569Z,16.57
2023-12-10T07:56:09.663Z,16.57
2023-12-10T08:01:12.058Z,16.56
2023-12-10T08:06:14.322Z,16.56
2023-12-10T08:11:16.466Z,16.57
2023-12-10T08:16:18.948Z,16.57
2023-12-10T08:21:21.209Z,16.56
2023-12-10T08:26:23.360Z,16.56
2023-12-10T08:31:26.921Z,16.57
2023-12-10T08:36:29.142Z,16.58
2023-12-10T08:41:32.640Z,16.57
2023-12-10T08:46:35.048Z,16.58
2023-12-10T08:51:37.180Z,16.56
2023-12-10T08:56:39.521Z,16.56
2023-12-10T09:01:41.798Z,16.55
2023-12-10T09:06:44.173Z,16.56
2023-12-10T09:11:48.585Z,16.55
2023-12-10T09:16:50.675Z,16.54
2023-12-10T09:21:52.842Z,16.54
2023-12-10T09:26:57.556Z,16.54
2023-12-10T09:31:59.658Z,16.55
2023-12-10T09:37:02.505Z,16.55
2023-12-10T09:42:06.151Z,16.55
2023-12-10T09:47:10.190Z,16.55
2023-12-10T09:52:12.260Z,16.54
2023-12-10T09:57:14.571Z,16.57
2023-12-10T10:02:17.568Z,16.56
2023-12-10T10:07:19.764Z,16.57
2023-12-10T10:12:22.067Z,16.56
2023-12-10T10:17:34.638Z,16.56
2023-12-10T10:22:37.432Z,16.59
2023-12-10T10:27:40.031Z,16.61
2023-12-10T10:32:44.183Z,16.60
2023-12-10T10:37:47.511Z,16.61
2023-12-10T10:42:49.762Z,16.61
2023-12-10T10:47:52.432Z,16.61
2023-12-10T10:52:56.355Z,16.65
2023-12-10T10:57:58.714Z,16.64
2023-12-10T11:03:04.020Z,16.63
2023-12-10T11:08:06.906Z,16.63
2023-12-10T11:13:09.173Z,16.62
2023-12-10T11:18:13.056Z,16.65
2023-12-10T11:23:16.932Z,16.64
2023-12-10T11:28:19.720Z,16.64
2023-12-10T11:33:21.978Z,16.65
2023-12-10T11:38:24.675Z,16.66
2023-12-10T11:43:27.549Z,16.68
2023-12-10T11:48:29.959Z,16.66
2023-12-10T11:53:32.293Z,16.66
2023-12-10T11:58:34.441Z,16.68
2023-12-10T12:03:36.603Z,16.69
2023-12-10T12:08:39.207Z,16.68
2023-12-10T12:13:41.335Z,16.68
2023-12-10T12:18:43.610Z,16.68
2023-12-10T12:23:45.919Z,16.68
2023-12-10T12:28:48.925Z,16.70
2023-12-10T12:33:51.306Z,16.71
2023-12-10T12:38:53.499Z,16.69
2023-12-10T12:43:55.594Z,16.71
2023-12-10T12:48:57.782Z,16.68
2023-12-10T12:54:12.068Z,16.72
2023-12-10T12:59:16.388Z,16.71
2023-12-10T13:04:18.719Z,16.71
2023-12-10T13:09:21.069Z,16.71
2023-12-10T13:14:23.328Z,16.72
2023-12-10T13:19:25.566Z,16.71
2023-12-10T13:24:27.772Z,16.72
2023-12-10T13:29:31.002Z,16.73
2023-12-10T13:34:33.502Z,16.74
2023-12-10T13:39:35.796Z,16.74
2023-12-10T13:44:37.961Z,16.74
2023-12-10T13:49:40.999Z,16.74
2023-12-10T13:54:43.274Z,16.72
2023-12-10T13:59:45.395Z,16.76
2023-12-10T14:04:48.620Z,16.75
2023-12-10T14:09:50.777Z,16.76
2023-12-10T14:14:52.924Z,16.77
2023-12-10T14:19:55.270Z,16.77
2023-12-10T14:24:57.518Z,16.77
2023-12-10T14:29:59.774Z,16.77
2023-12-10T14:35:02.468Z,16.78
2023-12-10T14:40:05.149Z,16.79
2023-12-10T14:45:08.406Z,16.78
2023-12-10T14:50:10.979Z,16.79
2023-12-10T14:55:14.647Z,16.79
2023-12-10T15:00:19.933Z,16.79
2023-12-10T15:05:22.207Z,16.81
2023-12-10T15:10:24.769Z,16.80
2023-12-10T15:15:27.623Z,16.84
2023-12-10T15:20:30.475Z,16.82
2023-12-10T15:25:33.345Z,16.83
2023-12-10T15:30:36.917Z,16.81
2023-12-10T15:35:39.282Z,16.85
2023-12-10T15:40:41.351Z,16.83
2023-12-10T15:45:43.523Z,16.85
2023-12-10T15:50:45.743Z,16.84
2023-12-10T15:55:48.005Z,16.81
2023-12-10T16:00:53.257Z,16.84
2023-12-10T16:05:55.643Z,16.85
2023-12-10T16:10:57.917Z,16.86
2023-12-10T16:16:00.194Z,16.84
2023-12-10T16:21:04.844Z,16.84
2023-12-10T16:26:08.212Z,16.85
2023-12-10T16:31:10.504Z,16.85
2023-12-10T16:36:15.779Z,16.85
2023-12-10T16:41:18.034Z,16.85
2023-12-10T16:46:20.263Z,16.85
2023-12-10T16:51:22.540Z,16.85
2023-12-10T16:56:24.827Z,16.84
2023-12-10T17:01:27.417Z,16.85
2023-12-10T17:06:29.712Z,16.85
2023-12-10T17:11:31.875Z,16.84
2023-12-10T17:16:34.093Z,16.84
2023-12-10T17:21:36.374Z,16.84
2023-12-10T17:26:38.537Z,16.85
2023-12-10T17:31:40.781Z,16.86
2023-12-10T17:36:42.997Z,16.81
2023-12-10T17:41:45.347Z,16.84
2023-12-10T17:46:48.023Z,16.86
2023-12-10T17:51:50.487Z,16.84
2023-12-10T17:56:52.854Z,16.85
2023-12-10T18:01:55.078Z,16.83
2023-12-10T18:06:57.245Z,16.84
2023-12-10T18:11:59.545Z,16.84
2023-12-10T18:17:01.883Z,16.84
2023-12-10T18:22:04.238Z,16.85
2023-12-10T18:27:06.433Z,16.85
2023-12-10T18:32:09.222Z,16.85
2023-12-10T18:37:11.583Z,16.84
2023-12-10T18:42:13.919Z,16.84
2023-12-10T18:47:16.121Z,16.85
2023-12-10T18:52:18.246Z,16.85
2023-12-10T18:57:20.781Z,16.86
2023-12-10T19:02:23.083Z,16.86
2023-12-10T19:07:25.237Z,16.85
2023-12-10T19:12:27.493Z,16.84
2023-12-10T19:17:29.919Z,16.84
2023-12-10T19:22:32.714Z,16.83
2023-12-10T19:27:35.162Z,16.84
2023-12-10T19:32:37.370Z,16.85
2023-12-10T19:37:41.735Z,16.86
2023-12-10T19:42:44.594Z,16.86
2023-12-10T19:47:49.852Z,16.85
2023-12-10T19:52:52.032Z,16.85
2023-12-10T19:57:54.188Z,16.86
2023-12-10T20:02:56.352Z,16.85
2023-12-10T20:07:58.529Z,16.83
2023-12-10T20:13:01.039Z,16.84
2023-12-10T20:18:03.350Z,16.85
2023-12-10T20:23:05.475Z,16.84
2023-12-10T20:28:07.708Z,16.85
2023-12-10T20:33:10.394Z,16.84
2023-12-10T20:38:12.795Z,16.85
2023-12-10T20:43:14.971Z,16.85
2023-12-10T20:48:17.489Z,16.84
2023-12-10T20:53:19.696Z,16.85
2023-12-10T20:58:22.049Z,16.83
2023-12-10T21:03:24.184Z,16.86
2023-12-10T21:08:27.396Z,16.85
2023-12-10T21:13:29.515Z,16.84
2023-12-10T21:18:31.756Z,16.84
2023-12-10T21:23:35.617Z,16.83
2023-12-10T21:28:37.690Z,16.83
2023-12-10T21:33:40.014Z,16.84
2023-12-10T21:38:42.185Z,16.84
2023-12-10T21:43:44.325Z,16.83
2023-12-10T21:48:46.496Z,16.83
2023-12-10T21:53:48.790Z,16.85
2023-12-10T21:58:51.022Z,16.84
2023-12-10T22:03:53.405Z,16.85
2023-12-10T22:08:55.687Z,16.84
2023-12-10T22:13:57.938Z,16.83
2023-12-10T22:19:00.286Z,16.80
2023-12-10T22:24:02.835Z,16.81
2023-12-10T22:29:05.050Z,16.83
2023-12-10T22:34:07.522Z,16.84
2023-12-10T22:39:09.863Z,16.85
2023-12-10T22:44:12.016Z,16.83
2023-12-10T22:49:14.431Z,16.84
2023-12-10T22:54:16.995Z,16.82
2023-12-10T22:59:19.126Z,16.82
2023-12-10T23:04:21.371Z,16.82
2023-12-10T23:09:23.618Z,16.81
2023-12-10T23:14:26.080Z,16.83
2023-12-10T23:19:28.347Z,16.82
2023-12-10T23:24:31.718Z,16.82
2023-12-10T23:29:33.899Z,16.81
2023-12-10T23:34:36.168Z,16.82
2023-12-10T23:39:38.426Z,16.79
2023-12-10T23:44:40.593Z,16.83
2023-12-10T23:49:44.118Z,16.83
2023-12-10T23:54:46.390Z,16.81
2023-12-10T23:59:48.663Z,16.83
